createdAt,value
2022-08-20T00:00:18.466Z,50.866779
2022-08-20T00:01:18.445Z,50.866795
2022-08-20T00:02:18.433Z,50.866817
2022-08-20T00:03:18.426Z,50.866840
2022-08-20T00:04:18.435Z,50.866837
2022-08-20T00:05:18.413Z,50.866817
2022-08-20T00:06:18.401Z,50.866791
2022-08-20T00:07:18.399Z,50.866768
2022-08-20T00:08:18.385Z,50.866772
2022-08-20T00:09:18.386Z,50.866764
2022-08-20T00:10:18.388Z,50.866844
2022-08-20T00:11:18.363Z,50.866795
2022-08-20T00:12:18.359Z,50.866772
2022-08-20T00:13:18.347Z,50.866776
2022-08-20T00:14:18.346Z,50.866806
2022-08-20T00:15:18.334Z,50.866760
2022-08-20T00:16:18.326Z,50.866821
2022-08-20T00:17:18.317Z,50.866802
2022-08-20T00:18:18.309Z,50.866776
2022-08-20T00:19:18.314Z,50.866776
2022-08-20T00:20:18.297Z,50.866787
2022-08-20T00:21:19.192Z,50.866776
2022-08-20T00:22:18.277Z,50.866802
2022-08-20T00:23:18.273Z,50.866787
2022-08-20T00:24:18.277Z,50.866806
2022-08-20T00:25:18.262Z,50.866787
2022-08-20T00:26:18.259Z,50.866810
2022-08-20T00:27:18.246Z,50.866852
2022-08-20T00:28:18.228Z,50.866840
2022-08-20T00:29:18.227Z,50.866856
2022-08-20T00:30:18.217Z,50.866756
2022-08-20T00:34:19.268Z,50.866688
2022-08-20T00:35:19.252Z,50.866714
2022-08-20T00:36:19.254Z,50.866726
2022-08-20T00:37:19.240Z,50.866714
2022-08-20T00:38:19.227Z,50.866692
2022-08-20T00:39:19.218Z,50.866722
2022-08-20T00:40:22.690Z,50.866665
2022-08-20T00:41:19.208Z,50.866585
2022-08-20T00:42:19.210Z,50.866737
2022-08-20T00:43:19.183Z,50.866749
2022-08-20T00:44:19.172Z,50.866764
2022-08-20T00:45:19.175Z,50.866798
2022-08-20T00:46:19.160Z,50.866749
2022-08-20T00:47:19.173Z,50.866764
2022-08-20T00:48:19.144Z,50.866749
2022-08-20T00:49:19.147Z,50.866734
2022-08-20T00:50:19.137Z,50.866714
2022-08-20T00:51:19.143Z,50.866764
2022-08-20T00:52:19.631Z,50.866722
2022-08-20T00:53:19.107Z,50.866657
2022-08-20T00:54:19.098Z,50.866714
2022-08-20T00:55:19.092Z,50.866734
2022-08-20T00:56:19.081Z,50.866802
2022-08-20T00:57:19.086Z,50.866776
2022-08-20T00:58:19.073Z,50.866756
2022-08-20T00:59:19.061Z,50.866650
2022-08-20T01:00:19.054Z,50.866650
2022-08-20T01:01:19.065Z,50.866650
2022-08-20T01:02:19.046Z,50.866650
2022-08-20T01:03:19.028Z,50.866650
2022-08-20T01:04:19.032Z,50.866650
2022-08-20T01:05:19.146Z,50.866398
2022-08-20T01:06:18.991Z,50.866879
2022-08-20T01:07:20.001Z,50.866852
2022-08-20T01:08:18.985Z,50.866844
2022-08-20T01:09:49.533Z,50.866806
2022-08-20T01:10:19.972Z,50.866871
2022-08-20T01:11:18.965Z,50.866909
2022-08-20T01:12:18.956Z,50.866879
2022-08-20T01:13:19.553Z,50.866856
2022-08-20T01:14:18.939Z,50.866863
2022-08-20T01:15:18.935Z,50.866993
2022-08-20T01:16:18.936Z,50.866932
2022-08-20T01:17:18.924Z,50.866905
2022-08-20T01:18:19.129Z,50.866917
2022-08-20T01:19:29.349Z,50.866879
2022-08-20T01:20:19.913Z,50.866692
2022-08-20T01:21:18.910Z,50.866756
2022-08-20T01:22:18.903Z,50.866802
2022-08-20T01:23:18.873Z,50.866768
2022-08-20T01:24:18.857Z,50.866772
2022-08-20T01:25:18.859Z,50.866772
2022-08-20T01:26:18.855Z,50.866741
2022-08-20T01:27:18.835Z,50.866802
2022-08-20T01:28:18.824Z,50.866779
2022-08-20T01:29:18.836Z,50.866798
2022-08-20T01:30:18.812Z,50.866779
2022-08-20T01:31:19.992Z,50.866821
2022-08-20T01:32:18.803Z,50.866768
2022-08-20T01:33:18.790Z,50.866806
2022-08-20T01:34:18.791Z,50.866787
2022-08-20T01:35:18.784Z,50.866814
2022-08-20T01:36:18.778Z,50.866802
2022-08-20T01:37:18.769Z,50.866734
2022-08-20T01:38:18.751Z,50.866749
2022-08-20T01:39:18.751Z,50.866848
2022-08-20T01:40:18.733Z,50.866764
2022-08-20T01:41:18.725Z,50.866795
2022-08-20T01:42:19.714Z,50.866837
2022-08-20T01:43:18.723Z,50.866798
2022-08-20T01:44:18.738Z,50.866776
2022-08-20T01:45:18.739Z,50.866798
2022-08-20T01:46:18.689Z,50.866821
2022-08-20T01:47:18.688Z,50.866821
2022-08-20T01:48:18.820Z,50.866817
2022-08-20T01:49:23.096Z,50.866749
2022-08-20T01:50:18.657Z,50.866756
2022-08-20T01:51:18.650Z,50.866795
2022-08-20T01:52:18.643Z,50.866795
2022-08-20T01:53:18.633Z,50.866825
2022-08-20T01:54:18.638Z,50.866802
2022-08-20T01:55:18.616Z,50.866821
2022-08-20T01:56:18.614Z,50.866871
2022-08-20T01:57:18.599Z,50.866787
2022-08-20T01:58:18.610Z,50.866886
2022-08-20T01:59:18.600Z,50.866974
2022-08-20T02:00:20.006Z,50.866920
2022-08-20T02:01:18.629Z,50.866821
2022-08-20T02:02:18.565Z,50.866856
2022-08-20T02:03:18.553Z,50.866901
2022-08-20T02:04:18.545Z,50.866821
2022-08-20T02:05:18.536Z,50.866798
2022-08-20T02:06:18.526Z,50.866859
2022-08-20T02:07:18.528Z,50.866909
2022-08-20T02:08:18.529Z,50.866840
2022-08-20T02:09:18.509Z,50.866787
2022-08-20T02:10:18.497Z,50.866844
2022-08-20T02:11:18.509Z,50.866806
2022-08-20T02:12:18.498Z,50.866882
2022-08-20T02:13:18.474Z,50.866840
2022-08-20T02:14:18.469Z,50.866768
2022-08-20T02:15:18.473Z,50.866787
2022-08-20T02:16:19.457Z,50.866795
2022-08-20T02:17:18.458Z,50.866825
2022-08-20T02:18:18.443Z,50.866802
2022-08-20T02:19:18.476Z,50.866810
2022-08-20T02:20:18.427Z,50.866814
2022-08-20T02:21:18.434Z,50.866810
2022-08-20T02:22:18.420Z,50.866810
2022-08-20T02:23:18.393Z,50.866817
2022-08-20T02:24:19.392Z,50.866772
2022-08-20T02:25:18.396Z,50.866791
2022-08-20T02:26:18.396Z,50.866791
2022-08-20T02:27:18.372Z,50.866825
2022-08-20T02:28:18.360Z,50.866867
2022-08-20T02:29:18.350Z,50.866806
2022-08-20T02:30:27.585Z,50.866852
2022-08-20T02:31:19.341Z,50.866840
2022-08-20T02:32:24.519Z,50.866856
2022-08-20T02:33:19.325Z,50.866772
2022-08-20T02:34:22.702Z,50.866806
2022-08-20T02:35:18.304Z,50.866764
2022-08-20T02:36:18.306Z,50.866753
2022-08-20T02:37:18.293Z,50.866821
2022-08-20T02:38:18.278Z,50.866837
2022-08-20T02:39:18.269Z,50.866901
2022-08-20T02:40:18.331Z,50.866871
2022-08-20T02:41:19.267Z,50.866817
2022-08-20T02:42:18.283Z,50.866821
2022-08-20T02:43:18.251Z,50.866795
2022-08-20T02:44:18.247Z,50.866802
2022-08-20T02:45:19.181Z,50.866779
2022-08-20T02:46:18.227Z,50.866722
2022-08-20T02:47:18.209Z,50.866734
2022-08-20T02:48:18.205Z,50.866730
2022-08-20T02:49:18.192Z,50.866734
2022-08-20T02:50:18.184Z,50.866741
2022-08-20T02:51:18.166Z,50.866737
2022-08-20T02:52:20.170Z,50.866768
2022-08-20T02:53:18.158Z,50.866806
2022-08-20T02:54:18.165Z,50.866806
2022-08-20T02:55:27.135Z,50.866814
2022-08-20T02:56:19.169Z,50.866806
2022-08-20T02:57:18.139Z,50.866768
2022-08-20T02:58:18.115Z,50.866783
2022-08-20T02:59:19.138Z,50.866772
2022-08-20T03:00:18.105Z,50.866817
2022-08-20T03:01:18.144Z,50.866791
2022-08-20T03:02:19.090Z,50.866787
2022-08-20T03:03:18.076Z,50.866833
2022-08-20T03:04:18.072Z,50.866810
2022-08-20T03:05:18.068Z,50.866760
2022-08-20T03:06:18.055Z,50.866707
2022-08-20T03:07:18.060Z,50.866707
2022-08-20T03:08:18.048Z,50.866714
2022-08-20T03:09:18.042Z,50.866695
2022-08-20T03:10:18.023Z,50.866718
2022-08-20T03:11:18.020Z,50.866749
2022-08-20T03:12:18.012Z,50.866772
2022-08-20T03:13:18.012Z,50.866753
2022-08-20T03:14:18.007Z,50.866726
2022-08-20T03:15:18.054Z,50.866680
2022-08-20T03:16:17.980Z,50.866669
2022-08-20T03:17:17.971Z,50.866692
2022-08-20T03:18:18.192Z,50.866695
2022-08-20T03:19:17.951Z,50.866734
2022-08-20T03:20:17.953Z,50.866711
2022-08-20T03:21:18.948Z,50.866741
2022-08-20T03:22:17.944Z,50.866776
2022-08-20T03:23:17.940Z,50.866768
2022-08-20T03:24:17.917Z,50.866695
2022-08-20T03:25:17.909Z,50.866741
2022-08-20T03:26:17.905Z,50.866756
2022-08-20T03:27:17.889Z,50.866817
2022-08-20T03:28:17.881Z,50.866768
2022-08-20T03:29:17.884Z,50.866768
2022-08-20T03:30:17.869Z,50.866756
2022-08-20T03:31:17.857Z,50.866806
2022-08-20T03:32:17.855Z,50.866817
2022-08-20T03:33:17.845Z,50.866711
2022-08-20T03:34:17.842Z,50.866718
2022-08-20T03:35:17.827Z,50.866898
2022-08-20T03:36:20.033Z,50.866863
2022-08-20T03:37:18.818Z,50.866821
2022-08-20T03:38:17.809Z,50.866730
2022-08-20T03:39:17.800Z,50.866714
2022-08-20T03:40:17.847Z,50.866707
2022-08-20T03:41:17.781Z,50.866779
2022-08-20T03:42:17.776Z,50.866833
2022-08-20T03:43:17.770Z,50.866749
2022-08-20T03:44:17.760Z,50.866680
2022-08-20T03:45:20.470Z,50.866680
2022-08-20T03:46:23.123Z,50.866787
2022-08-20T03:47:18.733Z,50.866772
2022-08-20T03:48:17.742Z,50.866848
2022-08-20T03:49:17.716Z,50.866783
2022-08-20T03:50:23.661Z,50.866776
2022-08-20T03:51:18.702Z,50.866726
2022-08-20T03:52:17.691Z,50.866802
2022-08-20T03:53:17.682Z,50.866821
2022-08-20T03:54:17.682Z,50.866726
2022-08-20T03:55:17.673Z,50.866692
2022-08-20T03:56:17.655Z,50.866718
2022-08-20T03:57:17.649Z,50.866745
2022-08-20T03:58:17.643Z,50.866825
2022-08-20T03:59:17.634Z,50.866726
2022-08-20T04:00:17.629Z,50.866726
2022-08-20T04:01:44.354Z,50.866734
2022-08-20T04:02:18.614Z,50.866734
2022-08-20T04:03:17.606Z,50.866684
2022-08-20T04:04:17.608Z,50.866749
2022-08-20T04:05:17.595Z,50.866798
2022-08-20T04:06:17.600Z,50.866833
2022-08-20T04:07:17.573Z,50.866772
2022-08-20T04:08:17.572Z,50.866886
2022-08-20T04:09:17.568Z,50.866882
2022-08-20T04:10:17.558Z,50.866959
2022-08-20T04:11:17.551Z,50.866936
2022-08-20T04:12:17.531Z,50.866749
2022-08-20T04:13:17.524Z,50.866856
2022-08-20T04:14:19.461Z,50.866837
2022-08-20T04:15:17.516Z,50.866859
2022-08-20T04:16:17.518Z,50.866863
2022-08-20T04:17:17.504Z,50.866840
2022-08-20T04:18:17.485Z,50.866692
2022-08-20T04:19:17.473Z,50.867081
2022-08-20T04:20:17.471Z,50.867104
2022-08-20T04:21:17.468Z,50.867176
2022-08-20T04:22:17.450Z,50.867031
2022-08-20T04:23:17.444Z,50.866859
2022-08-20T04:24:21.956Z,50.866871
2022-08-20T04:25:18.427Z,50.866959
2022-08-20T04:26:18.431Z,50.867203
2022-08-20T04:27:17.413Z,50.867161
2022-08-20T04:28:17.407Z,50.866940
2022-08-20T04:29:17.408Z,50.866856
2022-08-20T04:30:17.389Z,50.866844
2022-08-20T04:31:18.162Z,50.866848
2022-08-20T04:32:17.974Z,50.866901
2022-08-20T04:33:19.155Z,50.866749
2022-08-20T04:34:18.361Z,50.866833
2022-08-20T04:35:17.365Z,50.867153
2022-08-20T04:36:17.346Z,50.867142
2022-08-20T04:37:17.559Z,50.867088
2022-08-20T04:38:17.336Z,50.867035
2022-08-20T04:39:17.320Z,50.866898
2022-08-20T04:40:17.328Z,50.866970
2022-08-20T04:41:22.919Z,50.866959
2022-08-20T04:42:18.309Z,50.866844
2022-08-20T04:43:17.300Z,50.866840
2022-08-20T04:44:17.284Z,50.866856
2022-08-20T04:45:17.283Z,50.867073
2022-08-20T04:46:17.279Z,50.867104
2022-08-20T04:47:17.278Z,50.867115
2022-08-20T04:48:18.257Z,50.867432
2022-08-20T04:49:17.245Z,50.867352
2022-08-20T04:50:17.237Z,50.867199
2022-08-20T04:51:17.260Z,50.867287
2022-08-20T04:52:17.218Z,50.867325
2022-08-20T04:53:17.213Z,50.867153
2022-08-20T04:54:17.202Z,50.866871
2022-08-20T04:55:17.196Z,50.866749
2022-08-20T04:56:17.186Z,50.866653
2022-08-20T04:57:17.184Z,50.866634
2022-08-20T04:58:17.175Z,50.866711
2022-08-20T04:59:17.174Z,50.866764
2022-08-20T05:00:17.153Z,50.866943
2022-08-20T05:01:17.176Z,50.867111
2022-08-20T05:02:17.142Z,50.867092
2022-08-20T05:03:17.134Z,50.866764
2022-08-20T05:04:17.129Z,50.866703
2022-08-20T05:05:17.114Z,50.866531
2022-08-20T05:06:17.119Z,50.866627
2022-08-20T05:07:17.100Z,50.866539
2022-08-20T05:08:20.129Z,50.866573
2022-08-20T05:09:17.099Z,50.866943
2022-08-20T05:10:17.079Z,50.866840
2022-08-20T05:11:32.553Z,50.866673
2022-08-20T05:12:18.057Z,50.866634
2022-08-20T05:13:17.051Z,50.866653
2022-08-20T05:14:17.051Z,50.866493
2022-08-20T05:15:17.035Z,50.866508
2022-08-20T05:16:17.027Z,50.866840
2022-08-20T05:17:17.021Z,50.866947
2022-08-20T05:18:17.205Z,50.866779
2022-08-20T05:19:17.011Z,50.866962
2022-08-20T05:20:16.994Z,50.866905
2022-08-20T05:21:16.994Z,50.866787
2022-08-20T05:22:16.983Z,50.866840
2022-08-20T05:23:16.974Z,50.866886
2022-08-20T05:24:16.975Z,50.866810
2022-08-20T05:25:17.711Z,50.866795
2022-08-20T05:26:16.950Z,50.866810
2022-08-20T05:27:24.762Z,50.866791
2022-08-20T05:28:17.931Z,50.866779
2022-08-20T05:29:16.932Z,50.866749
2022-08-20T05:30:16.925Z,50.866745
2022-08-20T05:31:16.915Z,50.866722
2022-08-20T05:32:16.910Z,50.866745
2022-08-20T05:33:16.965Z,50.866779
2022-08-20T05:34:16.895Z,50.866776
2022-08-20T05:35:16.884Z,50.866817
2022-08-20T05:36:16.866Z,50.866901
2022-08-20T05:37:16.862Z,50.866943
2022-08-20T05:38:16.849Z,50.867001
2022-08-20T05:39:16.840Z,50.867008
2022-08-20T05:40:16.881Z,50.866962
2022-08-20T05:41:28.951Z,50.866890
2022-08-20T05:42:17.826Z,50.866814
2022-08-20T05:43:16.807Z,50.866837
2022-08-20T05:44:16.800Z,50.866776
2022-08-20T05:45:16.793Z,50.866745
2022-08-20T05:46:16.793Z,50.866753
2022-08-20T05:47:16.778Z,50.866802
2022-08-20T05:48:16.767Z,50.866776
2022-08-20T05:49:16.764Z,50.866825
2022-08-20T05:50:19.870Z,50.866772
2022-08-20T05:51:17.750Z,50.866749
2022-08-20T05:52:16.739Z,50.866802
2022-08-20T05:53:16.728Z,50.866756
2022-08-20T05:54:16.720Z,50.866821
2022-08-20T05:55:16.713Z,50.866802
2022-08-20T05:56:16.705Z,50.866814
2022-08-20T05:57:16.711Z,50.866863
2022-08-20T05:58:16.706Z,50.866840
2022-08-20T05:59:19.041Z,50.866798
2022-08-20T06:00:17.669Z,50.866798
2022-08-20T06:01:16.699Z,50.866745
2022-08-20T06:02:16.658Z,50.866749
2022-08-20T06:03:16.650Z,50.866806
2022-08-20T06:04:16.649Z,50.866787
2022-08-20T06:05:16.652Z,50.866737
2022-08-20T06:06:18.238Z,50.866779
2022-08-20T06:07:17.631Z,50.866791
2022-08-20T06:08:16.621Z,50.866821
2022-08-20T06:09:16.605Z,50.866795
2022-08-20T06:10:17.647Z,50.866760
2022-08-20T06:11:16.589Z,50.866703
2022-08-20T06:12:16.603Z,50.866730
2022-08-20T06:13:16.578Z,50.866695
2022-08-20T06:14:16.572Z,50.866749
2022-08-20T06:15:17.563Z,50.866817
2022-08-20T06:16:16.552Z,50.866821
2022-08-20T06:17:16.541Z,50.866833
2022-08-20T06:18:28.341Z,50.866844
2022-08-20T06:19:17.529Z,50.866840
2022-08-20T06:20:17.528Z,50.866829
2022-08-20T06:21:16.517Z,50.866920
2022-08-20T06:22:18.769Z,50.866730
2022-08-20T06:23:17.496Z,50.866760
2022-08-20T06:24:16.527Z,50.866993
2022-08-20T06:25:16.486Z,50.867043
2022-08-20T06:26:16.465Z,50.867126
2022-08-20T06:27:17.464Z,50.867065
2022-08-20T06:28:16.468Z,50.866955
2022-08-20T06:29:16.458Z,50.866959
2022-08-20T06:30:16.433Z,50.866955
2022-08-20T06:31:16.433Z,50.866791
2022-08-20T06:32:16.457Z,50.866829
2022-08-20T06:33:16.413Z,50.866791
2022-08-20T06:34:16.406Z,50.866840
2022-08-20T06:35:19.888Z,50.866806
2022-08-20T06:36:18.660Z,50.866714
2022-08-20T06:37:16.377Z,50.866726
2022-08-20T06:38:16.379Z,50.866825
2022-08-20T06:39:16.367Z,50.866764
2022-08-20T06:40:16.429Z,50.866627
2022-08-20T06:41:16.351Z,50.866726
2022-08-20T06:42:20.739Z,50.866783
2022-08-20T06:43:16.336Z,50.866821
2022-08-20T06:44:16.324Z,50.866905
2022-08-20T06:45:16.325Z,50.866920
2022-08-20T06:46:16.312Z,50.866936
2022-08-20T06:47:16.331Z,50.866966
2022-08-20T06:48:16.298Z,50.866936
2022-08-20T06:49:16.303Z,50.866928
2022-08-20T06:50:16.280Z,50.866959
2022-08-20T06:51:16.270Z,50.866909
2022-08-20T06:52:16.271Z,50.866852
2022-08-20T06:53:16.260Z,50.866928
2022-08-20T06:54:16.295Z,50.866997
2022-08-20T06:55:16.243Z,50.866993
2022-08-20T06:56:16.235Z,50.866970
2022-08-20T06:57:16.296Z,50.866978
2022-08-20T06:58:30.527Z,50.867001
2022-08-20T06:59:17.217Z,50.867043
2022-08-20T07:00:16.205Z,50.866974
2022-08-20T07:01:16.236Z,50.866917
2022-08-20T07:02:16.212Z,50.866867
2022-08-20T07:03:16.184Z,50.866798
2022-08-20T07:04:16.172Z,50.866760
2022-08-20T07:05:16.165Z,50.866741
2022-08-20T07:06:16.161Z,50.866772
2022-08-20T07:07:16.162Z,50.866844
2022-08-20T07:08:16.141Z,50.866768
2022-08-20T07:09:16.138Z,50.866768
2022-08-20T07:10:16.129Z,50.866776
2022-08-20T07:11:16.125Z,50.866844
2022-08-20T07:12:16.105Z,50.866802
2022-08-20T07:13:16.113Z,50.866798
2022-08-20T07:14:16.091Z,50.866772
2022-08-20T07:15:16.093Z,50.866856
2022-08-20T07:16:16.075Z,50.866768
2022-08-20T07:17:16.071Z,50.866787
2022-08-20T07:18:16.324Z,50.866726
2022-08-20T07:19:17.050Z,50.866737
2022-08-20T07:20:16.049Z,50.866776
2022-08-20T07:21:16.044Z,50.866913
2022-08-20T07:22:16.029Z,50.866844
2022-08-20T07:23:16.016Z,50.866856
2022-08-20T07:24:16.017Z,50.866833
2022-08-20T07:25:16.012Z,50.866859
2022-08-20T07:26:15.993Z,50.866806
2022-08-20T07:27:15.993Z,50.866749
2022-08-20T07:28:15.985Z,50.866814
2022-08-20T07:29:15.970Z,50.866817
2022-08-20T07:30:16.954Z,50.866753
2022-08-20T07:31:16.177Z,50.866814
2022-08-20T07:32:15.942Z,50.866741
2022-08-20T07:33:16.931Z,50.866859
2022-08-20T07:34:15.935Z,50.866901
2022-08-20T07:35:15.918Z,50.866882
2022-08-20T07:36:15.911Z,50.866924
2022-08-20T07:37:15.906Z,50.866909
2022-08-20T07:38:15.891Z,50.866886
2022-08-20T07:39:15.894Z,50.866810
2022-08-20T07:40:15.946Z,50.866821
2022-08-20T07:41:15.874Z,50.866852
2022-08-20T07:42:15.874Z,50.866798
2022-08-20T07:43:15.848Z,50.866863
2022-08-20T07:44:16.705Z,50.866905
2022-08-20T07:45:15.854Z,50.866890
2022-08-20T07:46:15.832Z,50.866901
2022-08-20T07:47:15.845Z,50.866844
2022-08-20T07:48:31.121Z,50.866810
2022-08-20T07:49:16.809Z,50.866829
2022-08-20T07:50:15.794Z,50.866852
2022-08-20T07:51:15.796Z,50.866852
2022-08-20T07:52:15.791Z,50.866867
2022-08-20T07:53:15.773Z,50.866840
2022-08-20T07:54:15.773Z,50.866829
2022-08-20T07:55:15.759Z,50.866806
2022-08-20T07:56:15.753Z,50.866791
2022-08-20T07:57:15.743Z,50.866703
2022-08-20T07:58:15.737Z,50.866772
2022-08-20T07:59:15.749Z,50.866825
2022-08-20T08:00:15.715Z,50.866817
2022-08-20T08:01:15.811Z,50.866840
2022-08-20T08:02:15.706Z,50.866821
2022-08-20T08:03:15.700Z,50.866783
2022-08-20T08:04:15.691Z,50.866817
2022-08-20T08:05:15.674Z,50.866776
2022-08-20T08:06:18.276Z,50.866848
2022-08-20T08:07:16.669Z,50.867279
2022-08-20T08:08:15.658Z,50.867161
2022-08-20T08:09:15.672Z,50.867020
2022-08-20T08:10:15.642Z,50.866856
2022-08-20T08:11:15.634Z,50.866901
2022-08-20T08:12:15.632Z,50.867001
2022-08-20T08:13:15.621Z,50.867062
2022-08-20T08:14:15.625Z,50.867149
2022-08-20T08:15:15.601Z,50.867210
2022-08-20T08:16:15.590Z,50.867222
2022-08-20T08:17:15.581Z,50.867401
2022-08-20T08:18:15.570Z,50.867474
2022-08-20T08:19:15.581Z,50.867672
2022-08-20T08:20:15.560Z,50.867783
2022-08-20T08:21:15.548Z,50.867775
2022-08-20T08:22:15.542Z,50.867817
2022-08-20T08:23:24.823Z,50.867817
2022-08-20T08:24:21.015Z,50.866810
2022-08-20T08:25:17.523Z,50.866318
2022-08-20T08:26:15.885Z,50.866188
2022-08-20T08:27:16.300Z,50.865856
2022-08-20T08:28:15.499Z,50.865849
2022-08-20T08:29:15.507Z,50.865639
2022-08-20T08:30:15.484Z,50.865795
2022-08-20T08:31:15.489Z,50.865993
2022-08-20T08:32:15.473Z,50.866425
2022-08-20T08:33:15.472Z,50.866364
2022-08-20T08:34:15.455Z,50.866386
2022-08-20T08:35:15.447Z,50.866375
2022-08-20T08:36:15.448Z,50.866352
2022-08-20T08:37:15.424Z,50.866413
2022-08-20T08:38:15.429Z,50.866573
2022-08-20T08:39:15.418Z,50.866547
2022-08-20T08:40:15.465Z,50.866550
2022-08-20T08:41:15.412Z,50.866783
2022-08-20T08:42:15.389Z,50.866760
2022-08-20T08:43:17.357Z,50.866699
2022-08-20T08:44:16.367Z,50.866657
2022-08-20T08:45:15.379Z,50.866726
2022-08-20T08:46:15.364Z,50.866711
2022-08-20T08:47:15.351Z,50.866726
2022-08-20T08:48:18.551Z,50.866695
2022-08-20T08:49:16.334Z,50.866669
2022-08-20T08:50:15.331Z,50.866680
2022-08-20T08:51:15.318Z,50.866692
2022-08-20T08:52:15.308Z,50.866684
2022-08-20T08:53:15.307Z,50.866753
2022-08-20T08:54:15.299Z,50.866699
2022-08-20T08:55:15.280Z,50.866638
2022-08-20T08:56:15.316Z,50.866718
2022-08-20T08:57:15.276Z,50.866730
2022-08-20T08:58:17.054Z,50.866722
2022-08-20T08:59:15.276Z,50.866695
2022-08-20T09:00:15.275Z,50.866665
2022-08-20T09:01:53.237Z,50.866638
2022-08-20T09:02:16.278Z,50.866653
2022-08-20T09:03:15.225Z,50.866714
2022-08-20T09:04:15.229Z,50.866894
2022-08-20T09:05:15.211Z,50.866753
2022-08-20T09:06:15.195Z,50.866745
2022-08-20T09:07:15.203Z,50.866669
2022-08-20T09:08:17.227Z,50.866646
2022-08-20T09:09:16.186Z,50.866619
2022-08-20T09:10:15.168Z,50.866615
2022-08-20T09:11:15.156Z,50.866802
2022-08-20T09:12:15.158Z,50.866787
2022-08-20T09:13:15.142Z,50.866699
2022-08-20T09:14:15.145Z,50.866722
2022-08-20T09:15:15.130Z,50.866718
2022-08-20T09:16:15.123Z,50.866646
2022-08-20T09:17:15.110Z,50.866661
2022-08-20T09:18:15.100Z,50.866650
2022-08-20T09:19:15.100Z,50.866657
2022-08-20T09:20:15.114Z,50.866692
2022-08-20T09:21:15.093Z,50.866772
2022-08-20T09:22:15.073Z,50.866676
2022-08-20T09:23:15.066Z,50.866684
2022-08-20T09:24:15.067Z,50.866692
2022-08-20T09:25:15.044Z,50.866741
2022-08-20T09:26:15.032Z,50.866692
2022-08-20T09:27:15.029Z,50.866734
2022-08-20T09:28:15.018Z,50.866699
2022-08-20T09:29:15.082Z,50.866692
2022-08-20T09:30:15.004Z,50.866650
2022-08-20T09:31:15.010Z,50.866669
2022-08-20T09:32:15.003Z,50.866669
2022-08-20T09:33:14.983Z,50.866638
2022-08-20T09:34:14.989Z,50.866623
2022-08-20T09:35:14.970Z,50.866665
2022-08-20T09:36:31.855Z,50.866680
2022-08-20T09:37:15.957Z,50.866642
2022-08-20T09:38:14.937Z,50.866692
2022-08-20T09:39:14.942Z,50.866714
2022-08-20T09:40:14.981Z,50.866657
2022-08-20T09:41:15.926Z,50.866699
2022-08-20T09:42:14.921Z,50.866695
2022-08-20T09:43:14.911Z,50.866673
2022-08-20T09:44:14.893Z,50.866684
2022-08-20T09:45:14.928Z,50.866695
2022-08-20T09:46:14.880Z,50.866711
2022-08-20T09:47:14.875Z,50.866665
2022-08-20T09:48:14.862Z,50.866688
2022-08-20T09:49:14.855Z,50.866741
2022-08-20T09:50:15.383Z,50.866791
2022-08-20T09:51:14.838Z,50.866817
2022-08-20T09:52:14.837Z,50.866707
2022-08-20T09:53:14.825Z,50.866631
2022-08-20T09:54:14.817Z,50.866638
2022-08-20T09:55:14.821Z,50.866581
2022-08-20T09:56:14.808Z,50.866642
2022-08-20T09:57:14.795Z,50.866638
2022-08-20T09:58:14.781Z,50.866596
2022-08-20T09:59:14.783Z,50.866589
2022-08-20T10:00:14.835Z,50.866653
2022-08-20T10:01:14.797Z,50.866608
2022-08-20T10:02:14.754Z,50.866619
2022-08-20T10:03:14.749Z,50.866695
2022-08-20T10:04:14.754Z,50.866653
2022-08-20T10:05:14.731Z,50.866699
2022-08-20T10:06:14.757Z,50.866718
2022-08-20T10:07:15.873Z,50.866615
2022-08-20T10:08:14.702Z,50.866673
2022-08-20T10:09:14.698Z,50.866714
2022-08-20T10:10:14.715Z,50.866680
2022-08-20T10:11:14.696Z,50.866627
2022-08-20T10:12:14.676Z,50.866642
2022-08-20T10:13:15.438Z,50.866692
2022-08-20T10:14:14.661Z,50.866608
2022-08-20T10:15:14.673Z,50.866508
2022-08-20T10:16:14.644Z,50.866505
2022-08-20T10:17:14.645Z,50.866604
2022-08-20T10:18:14.629Z,50.866692
2022-08-20T10:19:14.626Z,50.866734
2022-08-20T10:20:14.703Z,50.866737
2022-08-20T10:21:14.620Z,50.866760
2022-08-20T10:22:14.610Z,50.866760
2022-08-20T10:23:14.604Z,50.866680
2022-08-20T10:24:15.341Z,50.866806
2022-08-20T10:25:14.570Z,50.866707
2022-08-20T10:26:14.581Z,50.866669
2022-08-20T10:27:14.554Z,50.866749
2022-08-20T10:28:14.553Z,50.866776
2022-08-20T10:29:14.546Z,50.866749
2022-08-20T10:30:14.533Z,50.866768
2022-08-20T10:31:14.544Z,50.866791
2022-08-20T10:32:14.523Z,50.866749
2022-08-20T10:33:14.522Z,50.866814
2022-08-20T10:34:15.336Z,50.866798
2022-08-20T10:35:14.517Z,50.866745
2022-08-20T10:36:14.532Z,50.866898
2022-08-20T10:37:14.493Z,50.866898
2022-08-20T10:38:14.474Z,50.866867
2022-08-20T10:39:14.469Z,50.866871
2022-08-20T10:40:15.429Z,50.866768
2022-08-20T10:41:14.549Z,50.866890
2022-08-20T10:42:14.449Z,50.866901
2022-08-20T10:43:14.485Z,50.866859
2022-08-20T10:44:14.434Z,50.867004
2022-08-20T10:45:14.436Z,50.866955
2022-08-20T10:46:14.415Z,50.867016
2022-08-20T10:47:14.406Z,50.867016
2022-08-20T10:48:17.206Z,50.866760
2022-08-20T10:49:16.383Z,50.866791
2022-08-20T10:50:14.436Z,50.866772
2022-08-20T10:51:14.375Z,50.866829
2022-08-20T10:52:14.368Z,50.866859
2022-08-20T10:53:14.363Z,50.866947
2022-08-20T10:54:14.356Z,50.866924
2022-08-20T10:55:14.346Z,50.866852
2022-08-20T10:56:15.835Z,50.866901
2022-08-20T10:57:15.373Z,50.866898
2022-08-20T10:58:14.332Z,50.866840
2022-08-20T10:59:14.319Z,50.866974
2022-08-20T11:00:14.309Z,50.866966
2022-08-20T11:01:31.538Z,50.867023
2022-08-20T11:02:15.340Z,50.867077
2022-08-20T11:03:14.275Z,50.867035
2022-08-20T11:04:14.266Z,50.866962
2022-08-20T11:05:14.278Z,50.866856
2022-08-20T11:06:14.259Z,50.866806
2022-08-20T11:07:14.265Z,50.866829
2022-08-20T11:08:14.251Z,50.866829
2022-08-20T11:09:14.258Z,50.866837
2022-08-20T11:10:14.263Z,50.866802
2022-08-20T11:11:14.213Z,50.866806
2022-08-20T11:12:14.210Z,50.866871
2022-08-20T11:13:14.203Z,50.866871
2022-08-20T11:14:14.198Z,50.866856
2022-08-20T11:15:14.190Z,50.866879
2022-08-20T11:16:14.176Z,50.866867
2022-08-20T11:17:14.176Z,50.866817
2022-08-20T11:18:14.178Z,50.866943
2022-08-20T11:19:14.166Z,50.866810
2022-08-20T11:20:14.154Z,50.866898
2022-08-20T11:21:14.134Z,50.866882
2022-08-20T11:22:14.132Z,50.866962
2022-08-20T11:23:14.141Z,50.866875
2022-08-20T11:24:14.123Z,50.866817
2022-08-20T11:25:14.106Z,50.866817
2022-08-20T11:26:14.099Z,50.866768
2022-08-20T11:27:14.091Z,50.866673